Flight Track Log - Related Links

Times and Time Zones

All times are in EDT time to prevent confusion due to time zone crossing. See the UAE787 flight status page for this flight to view local times or setup timezone preferences in your user account.

Time Position Orientation Groundspeed Altitude Reporting Facility
EDT Latitude Longitude Course Direction KTS MPH feet Rate Location/Type
Thu 09:18:00 AM 5.5999 -0.2437 266° West  Level FlightAware Approximate
Thu 09:19:00 AM 5.5945 -0.3206 266° West  Level FlightAware Approximate
Thu 09:20:00 AM 5.5892 -0.3975 266° West  Level FlightAware Approximate
Thu 09:21:00 AM 5.5838 -0.4743 266° West  Level FlightAware Approximate
Thu 09:22:00 AM 5.5784 -0.5512 266° West  Level FlightAware Approximate
Thu 09:23:00 AM 5.5731 -0.6281 266° West  Level FlightAware Approximate
Thu 09:24:00 AM 5.5677 -0.7050 266° West  Level FlightAware Approximate
Thu 09:25:00 AM 5.5623 -0.7818 266° West  Level FlightAware Approximate
Thu 09:26:00 AM 5.5569 -0.8587 266° West  Level FlightAware Approximate
Thu 09:27:00 AM 5.5514 -0.9356 266° West  Level FlightAware Approximate
Thu 09:28:00 AM 5.5460 -1.0125 266° West  Level FlightAware Approximate
Thu 09:29:00 AM 5.5406 -1.0893 266° West  Level FlightAware Approximate
Thu 09:30:00 AM 5.5351 -1.1662 266° West  Level FlightAware Approximate
Thu 09:31:00 AM 5.5297 -1.2431 266° West  Level FlightAware Approximate
Thu 09:32:00 AM 5.5242 -1.3200 266° West  Level FlightAware Approximate
Thu 09:33:00 AM 5.5187 -1.3968 266° West  Level FlightAware Approximate
Thu 09:34:00 AM 5.5132 -1.4737 266° West  Level FlightAware Approximate
Thu 09:35:00 AM 5.5077 -1.5506 266° West  Level FlightAware Approximate
Thu 09:36:00 AM 5.5022 -1.6274 266° West  Level FlightAware Approximate
Thu 09:37:00 AM 5.4967 -1.7043 266° West  Level FlightAware Approximate
Thu 09:38:00 AM 5.4912 -1.7811 266° West  Level FlightAware Approximate
Thu 09:39:00 AM 5.4856 -1.8580 266° West  Level FlightAware Approximate
Thu 09:40:00 AM 5.4801 -1.9349 266° West  Level FlightAware Approximate
Thu 09:41:00 AM 5.4745 -2.0117 266° West  Level FlightAware Approximate
Thu 09:42:00 AM 5.4689 -2.0886 266° West  Level FlightAware Approximate
Thu 09:43:00 AM 5.4634 -2.1654 266° West  Level FlightAware Approximate
Thu 09:44:00 AM 5.4578 -2.2423 266° West  Level FlightAware Approximate
Thu 09:45:00 AM 5.4522 -2.3191 266° West  Level FlightAware Approximate
Thu 09:46:00 AM 5.4466 -2.3960 266° West  Level FlightAware Approximate
Thu 09:47:00 AM 5.4409 -2.4728 266° West  Level FlightAware Approximate
Thu 09:48:00 AM 5.4353 -2.5497 266° West  Level FlightAware Approximate
Thu 09:49:00 AM 5.4297 -2.6265 266° West  Level FlightAware Approximate
Thu 09:50:00 AM 5.4240 -2.7034 266° West  Level FlightAware Approximate
Thu 09:51:00 AM 5.4184 -2.7802 266° West  Level FlightAware Approximate
Thu 09:52:00 AM 5.4127 -2.8570 266° West  Level FlightAware Approximate
Thu 09:53:00 AM 5.4083 -2.9167 265° West  Level FlightAware Approximate
Thu 09:54:00 AM 5.3973 -2.9929 265° West  Level Estimated
Thu 09:55:00 AM 5.4083 -2.9167 265° West  Level FlightAware Approximate
Thu 09:56:00 AM 5.3973 -2.9929 265° West  Level Estimated
Thu 09:57:00 AM 5.4083 -2.9167 265° West  Level FlightAware Approximate
Thu 09:58:00 AM 5.3973 -2.9929 265° West  Level Estimated
Thu 09:59:00 AM 5.4083 -2.9167 265° West  Level FlightAware Approximate
Thu 10:00:00 AM 5.3973 -2.9929 265° West  Level Estimated
Thu 10:01:00 AM 5.4083 -2.9167 265° West  Level FlightAware Approximate
Thu 10:02:00 AM 5.3973 -2.9929 265° West  Level Estimated
Thu 10:03:00 AM 5.4083 -2.9167 265° West  Level FlightAware Approximate
Thu 10:04:00 AM 5.3973 -2.9929 265° West  Level Estimated
Thu 10:05:00 AM 5.4083 -2.9167 265° West  Level FlightAware Approximate
Thu 10:06:00 AM 5.3973 -2.9929 265° West  Level Estimated
Thu 10:07:00 AM 5.4083 -2.9167 265° West  Level FlightAware Approximate
Thu 10:08:00 AM 5.3973 -2.9929 265° West  Level Estimated
Thu 10:09:00 AM 5.3888 -3.0514 265° West  Level Estimated

Login

Don't have an account? Register now (free) for customized features, flight alerts, and more!